• Join FlightAware (Why Join?)
  • Login
  • US Flag 
04:58PM EDT


 

Airport Tracker/Info


-or-


 

Live Flight TrackerFlight Track Log ✈ CHQ6101 ✈ 18-Apr-2014 ✈ KLGA - KBGR

Flight Track Log - Related Links

Times and Time Zones

All times are in EDT time to prevent confusion due to time zone crossing. See the CHQ6101 flight status page for this flight to view local times or setup timezone preferences in your user account.

Time Position Orientation Groundspeed Altitude Reporting Facility
EDT Latitude Longitude Course Direction KTS MPH feet Rate Location/Type
02:14PM 40.7333 -73.8167 21° North 196 226 2,100  Level New York TRACON
02:15PM 40.7947 -73.7500 39° Northeast 224 258 5,200 2,280 Climbing Boston Center
02:16PM 40.8500 -73.7167 25° Northeast 264 304 6,900 2,640 Climbing New York TRACON
02:17PM 40.9167 -73.6667 30° Northeast 275 316 9,300 2,040 Climbing New York TRACON
02:18PM 41.2451 -73.4856 33° Northeast  Level FlightAware Approximate
02:18PM 41.0203 -73.5994 26° Northeast 299 344 12,100  Level Boston Center
02:19PM 40.8527 -73.7986 21° North  Level FlightAware Approximate
02:19PM 41.1047 -73.5861 North 308 354 14,000  Level Boston Center
02:20PM 41.1947 -73.5275 26° Northeast 341 392 15,100 1,020 Climbing Boston Center
02:21PM 41.2853 -73.4597 29° Northeast 369 425 16,200 1,260 Climbing Boston Center
02:22PM 41.3858 -73.3847 29° Northeast 382 440 17,700 1,200 Climbing Boston Center
02:23PM 41.4786 -73.3133 30° Northeast 389 448 18,700 1,080 Climbing Boston Center
02:25PM 41.5472 -73.2239 44° Northeast 398 458 20,000 1,560 Climbing Boston Center
02:26PM 41.6558 -73.1217 35° Northeast 400 460 21,900 1,560 Climbing Boston Center
02:27PM 41.7606 -73.1297 357° North 386 444 23,300 1,380 Climbing Boston Center
02:28PM 41.8656 -73.1472 353° North 382 440 24,800 1,440 Climbing Boston Center
02:29PM 41.9694 -73.1653 353° North 382 440 26,300 660 Climbing Boston Center
02:31PM 42.1903 -73.1942 354° North 403 464 27,000 180 Climbing Boston Center
02:32PM 42.3003 -73.1014 32° Northeast 471 542 27,000  Level Boston Center
02:33PM 42.3894 -72.9606 49° Northeast 491 565 27,000  Level Boston Center
02:34PM 42.4997 -72.7861 49° Northeast 506 582 27,000  Level Boston Center
02:35PM 42.5917 -72.6394 50° Northeast 506 582 27,000  Level Boston Center
02:36PM 42.6742 -72.5039 50° Northeast 510 587 27,000  Level Boston Center
02:37PM 42.7678 -72.3533 50° Northeast 514 592 27,000  Level Boston Center
02:38PM 42.8603 -72.2000 51° Northeast 523 602 27,000  Level Boston Center
02:39PM 42.9700 -72.0169 51° Northeast 524 603 27,000  Level Boston Center
02:40PM 43.0617 -71.8653 50° Northeast 521 600 27,000  Level Boston Center
02:41PM 43.1533 -71.7136 50° Northeast 521 600 27,000  Level Boston Center
02:42PM 43.2450 -71.5619 50° Northeast 520 598 27,000  Level Boston Center
02:43PM 43.3372 -71.4106 50° Northeast 519 597 27,000  Level Boston Center
02:44PM 43.4275 -71.2575 51° Northeast 519 597 27,000  Level Boston Center
02:45PM 43.5175 -71.1044 51° Northeast 518 596 27,000  Level Boston Center
02:46PM 43.6253 -70.9208 51° Northeast 516 594 27,000  Level Boston Center
02:47PM 43.7125 -70.7711 51° Northeast 515 593 27,000  Level Boston Center
02:48PM 43.8019 -70.6158 51° Northeast 515 593 27,000 -360 Level Boston Center
02:49PM 43.8919 -70.4611 51° Northeast 515 593 26,300 -1,080 Descending Boston Center
02:50PM 43.9811 -70.3100 51° Northeast 509 586 24,800 -1,140 Descending Boston Center
02:51PM 44.0664 -70.1586 52° Northeast 499 574 24,000 -1,080 Descending Boston Center
02:52PM 44.1511 -70.0114 51° Northeast 474 545 22,600 -1,800 Descending Boston Center
02:53PM 44.2419 -69.8506 52° Northeast 455 524 20,300 -2,100 Descending Boston Center
02:54PM 44.3161 -69.7211 51° Northeast 441 507 18,300 -1,800 Descending Boston Center
02:55PM 44.3919 -69.5978 49° Northeast 412 474 16,700 -1,800 Descending Boston Center
02:56PM 44.4658 -69.5008 43° Northeast 370 426 14,700 -1,920 Descending Boston Center
02:57PM 44.5333 -69.4119 43° Northeast 340 391 12,800 -1,620 Descending Boston Center
02:58PM 44.5978 -69.3267 43° Northeast 326 375 11,400 -1,740 Descending Boston Center
02:59PM 44.6578 -69.2467 43° Northeast 304 350 9,300 -2,160 Descending Boston Center
03:00PM 44.7281 -69.1528 43° Northeast 295 339 7,000 -2,220 Descending Boston Center
03:01PM 44.7842 -69.0786 43° Northeast 284 327 4,800 -2,100 Descending Boston Center
03:03PM 44.8361 -69.0092 43° Northeast 266 306 2,700 -1,200 Descending Boston Center
03:04PM 44.8669 -68.9414 57° Northeast 223 257 2,400 -840 Descending Boston Center
03:05PM 44.8475 -68.8856 116° Southeast 182 209 1,100 -1,080 Descending Boston Center
03:06PM 44.8200 -68.8472 135° Southeast 156 180 300 -840 Descending Boston Center